sensor_id;sensor_type;location;lat;lon;timestamp;P1;durP1;ratioP1;P2;durP2;ratioP2
70953;SDS011;58618;47.490;8.736;2023-09-30T00:00:56;31.02;;;10.45;;
70953;SDS011;58618;47.490;8.736;2023-09-30T00:03:43;27.90;;;10.17;;
70953;SDS011;58618;47.490;8.736;2023-09-30T00:06:31;31.10;;;9.98;;
70953;SDS011;58618;47.490;8.736;2023-09-30T00:09:19;28.75;;;10.00;;
70953;SDS011;58618;47.490;8.736;2023-09-30T00:12:07;28.65;;;9.73;;
70953;SDS011;58618;47.490;8.736;2023-09-30T00:14:54;29.25;;;10.65;;
70953;SDS011;58618;47.490;8.736;2023-09-30T00:17:42;28.37;;;9.13;;
70953;SDS011;58618;47.490;8.736;2023-09-30T00:20:29;31.33;;;9.80;;
70953;SDS011;58618;47.490;8.736;2023-09-30T00:23:17;31.35;;;9.80;;
70953;SDS011;58618;47.490;8.736;2023-09-30T00:26:08;31.40;;;9.18;;
70953;SDS011;58618;47.490;8.736;2023-09-30T00:28:56;27.17;;;9.52;;
70953;SDS011;58618;47.490;8.736;2023-09-30T00:31:43;26.33;;;9.50;;
70953;SDS011;58618;47.490;8.736;2023-09-30T00:34:32;26.85;;;9.80;;
70953;SDS011;58618;47.490;8.736;2023-09-30T00:37:20;28.17;;;9.52;;
70953;SDS011;58618;47.490;8.736;2023-09-30T00:40:08;25.88;;;9.05;;
70953;SDS011;58618;47.490;8.736;2023-09-30T00:42:59;26.83;;;9.00;;
70953;SDS011;58618;47.490;8.736;2023-09-30T00:45:47;32.03;;;9.53;;
70953;SDS011;58618;47.490;8.736;2023-09-30T00:48:35;26.60;;;9.60;;
70953;SDS011;58618;47.490;8.736;2023-09-30T00:51:25;27.95;;;9.35;;
70953;SDS011;58618;47.490;8.736;2023-09-30T00:54:14;23.80;;;8.98;;
70953;SDS011;58618;47.490;8.736;2023-09-30T00:57:03;25.33;;;9.13;;
70953;SDS011;58618;47.490;8.736;2023-09-30T00:59:52;24.20;;;8.80;;
70953;SDS011;58618;47.490;8.736;2023-09-30T01:02:40;29.27;;;8.88;;
70953;SDS011;58618;47.490;8.736;2023-09-30T01:05:30;25.05;;;8.00;;
70953;SDS011;58618;47.490;8.736;2023-09-30T01:08:17;24.38;;;8.23;;
70953;SDS011;58618;47.490;8.736;2023-09-30T01:11:06;22.75;;;8.23;;
70953;SDS011;58618;47.490;8.736;2023-09-30T01:13:54;25.90;;;7.80;;
70953;SDS011;58618;47.490;8.736;2023-09-30T01:16:44;22.15;;;7.90;;
70953;SDS011;58618;47.490;8.736;2023-09-30T01:19:31;22.17;;;7.43;;
70953;SDS011;58618;47.490;8.736;2023-09-30T01:22:20;24.73;;;8.25;;
70953;SDS011;58618;47.490;8.736;2023-09-30T01:25:08;22.08;;;8.07;;
70953;SDS011;58618;47.490;8.736;2023-09-30T01:27:57;21.90;;;7.67;;
70953;SDS011;58618;47.490;8.736;2023-09-30T01:30:45;22.13;;;7.55;;
70953;SDS011;58618;47.490;8.736;2023-09-30T01:33:33;19.00;;;6.95;;
70953;SDS011;58618;47.490;8.736;2023-09-30T01:36:20;19.08;;;7.10;;
70953;SDS011;58618;47.490;8.736;2023-09-30T01:39:09;20.58;;;6.90;;
70953;SDS011;58618;47.490;8.736;2023-09-30T01:41:57;24.20;;;7.17;;
70953;SDS011;58618;47.490;8.736;2023-09-30T01:44:45;24.10;;;6.55;;
70953;SDS011;58618;47.490;8.736;2023-09-30T01:47:32;20.92;;;6.78;;
70953;SDS011;58618;47.490;8.736;2023-09-30T01:50:20;18.75;;;6.72;;
70953;SDS011;58618;47.490;8.736;2023-09-30T01:53:07;19.35;;;6.82;;
70953;SDS011;58618;47.490;8.736;2023-09-30T01:55:56;19.80;;;6.60;;
70953;SDS011;58618;47.490;8.736;2023-09-30T01:58:43;16.80;;;6.40;;
70953;SDS011;58618;47.490;8.736;2023-09-30T02:01:31;19.73;;;6.90;;
70953;SDS011;58618;47.490;8.736;2023-09-30T02:04:18;20.98;;;7.30;;
70953;SDS011;58618;47.490;8.736;2023-09-30T02:07:05;23.55;;;7.88;;
70953;SDS011;58618;47.490;8.736;2023-09-30T02:09:53;20.20;;;6.47;;
70953;SDS011;58618;47.490;8.736;2023-09-30T02:12:41;21.63;;;7.85;;
70953;SDS011;58618;47.490;8.736;2023-09-30T02:15:28;23.20;;;8.57;;
70953;SDS011;58618;47.490;8.736;2023-09-30T02:18:16;22.73;;;7.97;;
70953;SDS011;58618;47.490;8.736;2023-09-30T02:21:04;26.15;;;8.20;;
70953;SDS011;58618;47.490;8.736;2023-09-30T02:23:51;25.67;;;8.17;;
70953;SDS011;58618;47.490;8.736;2023-09-30T02:26:40;24.00;;;8.30;;
70953;SDS011;58618;47.490;8.736;2023-09-30T02:29:30;24.40;;;8.35;;
70953;SDS011;58618;47.490;8.736;2023-09-30T02:32:17;21.38;;;8.32;;
70953;SDS011;58618;47.490;8.736;2023-09-30T02:35:05;25.83;;;8.35;;
70953;SDS011;58618;47.490;8.736;2023-09-30T02:37:56;25.27;;;8.10;;
70953;SDS011;58618;47.490;8.736;2023-09-30T02:40:44;24.73;;;8.18;;
70953;SDS011;58618;47.490;8.736;2023-09-30T02:43:32;24.13;;;8.15;;
70953;SDS011;58618;47.490;8.736;2023-09-30T02:46:21;25.30;;;8.27;;
70953;SDS011;58618;47.490;8.736;2023-09-30T02:49:08;23.45;;;8.80;;
70953;SDS011;58618;47.490;8.736;2023-09-30T02:51:56;23.13;;;8.73;;
70953;SDS011;58618;47.490;8.736;2023-09-30T02:54:43;27.88;;;9.63;;
70953;SDS011;58618;47.490;8.736;2023-09-30T02:57:30;26.10;;;9.00;;
70953;SDS011;58618;47.490;8.736;2023-09-30T03:00:18;28.20;;;8.73;;
70953;SDS011;58618;47.490;8.736;2023-09-30T03:03:10;25.83;;;9.55;;
70953;SDS011;58618;47.490;8.736;2023-09-30T03:05:58;26.60;;;9.77;;
70953;SDS011;58618;47.490;8.736;2023-09-30T03:08:46;25.50;;;9.60;;
70953;SDS011;58618;47.490;8.736;2023-09-30T03:11:34;28.90;;;9.52;;
70953;SDS011;58618;47.490;8.736;2023-09-30T03:14:21;28.23;;;9.77;;
70953;SDS011;58618;47.490;8.736;2023-09-30T03:17:09;28.65;;;9.15;;
70953;SDS011;58618;47.490;8.736;2023-09-30T03:19:58;29.43;;;9.17;;
70953;SDS011;58618;47.490;8.736;2023-09-30T03:22:56;28.65;;;10.10;;
70953;SDS011;58618;47.490;8.736;2023-09-30T03:25:43;28.65;;;9.65;;
70953;SDS011;58618;47.490;8.736;2023-09-30T03:28:31;31.52;;;9.90;;
70953;SDS011;58618;47.490;8.736;2023-09-30T03:31:19;28.23;;;9.80;;
70953;SDS011;58618;47.490;8.736;2023-09-30T03:34:06;26.90;;;9.80;;
70953;SDS011;58618;47.490;8.736;2023-09-30T03:36:55;28.65;;;10.43;;
70953;SDS011;58618;47.490;8.736;2023-09-30T03:39:44;27.42;;;10.02;;
70953;SDS011;58618;47.490;8.736;2023-09-30T03:42:35;26.17;;;9.65;;
70953;SDS011;58618;47.490;8.736;2023-09-30T03:45:22;26.20;;;10.18;;
70953;SDS011;58618;47.490;8.736;2023-09-30T03:48:09;24.40;;;9.10;;
70953;SDS011;58618;47.490;8.736;2023-09-30T03:50:57;26.85;;;9.45;;
70953;SDS011;58618;47.490;8.736;2023-09-30T03:53:46;27.38;;;9.02;;
70953;SDS011;58618;47.490;8.736;2023-09-30T03:56:33;29.85;;;10.20;;
70953;SDS011;58618;47.490;8.736;2023-09-30T03:59:21;24.08;;;9.13;;
70953;SDS011;58618;47.490;8.736;2023-09-30T04:02:09;22.53;;;9.20;;
70953;SDS011;58618;47.490;8.736;2023-09-30T04:04:56;22.20;;;8.70;;
70953;SDS011;58618;47.490;8.736;2023-09-30T04:07:45;24.70;;;8.32;;
70953;SDS011;58618;47.490;8.736;2023-09-30T04:10:33;24.48;;;9.20;;
70953;SDS011;58618;47.490;8.736;2023-09-30T04:13:21;22.65;;;8.68;;
70953;SDS011;58618;47.490;8.736;2023-09-30T04:16:08;23.67;;;8.10;;
70953;SDS011;58618;47.490;8.736;2023-09-30T04:18:55;25.98;;;9.23;;
70953;SDS011;58618;47.490;8.736;2023-09-30T04:21:42;29.80;;;9.57;;
70953;SDS011;58618;47.490;8.736;2023-09-30T04:24:30;21.83;;;8.23;;
70953;SDS011;58618;47.490;8.736;2023-09-30T04:27:18;22.60;;;8.25;;
70953;SDS011;58618;47.490;8.736;2023-09-30T04:30:06;23.90;;;8.30;;
70953;SDS011;58618;47.490;8.736;2023-09-30T04:32:56;22.77;;;8.73;;
70953;SDS011;58618;47.490;8.736;2023-09-30T04:35:44;24.63;;;8.93;;
70953;SDS011;58618;47.490;8.736;2023-09-30T04:38:31;23.23;;;8.65;;
70953;SDS011;58618;47.490;8.736;2023-09-30T04:41:19;25.67;;;9.23;;
70953;SDS011;58618;47.490;8.736;2023-09-30T04:44:08;24.53;;;8.83;;
70953;SDS011;58618;47.490;8.736;2023-09-30T04:46:57;29.75;;;9.70;;
70953;SDS011;58618;47.490;8.736;2023-09-30T04:49:45;23.40;;;8.95;;
70953;SDS011;58618;47.490;8.736;2023-09-30T04:52:32;22.75;;;8.15;;
70953;SDS011;58618;47.490;8.736;2023-09-30T04:55:20;24.52;;;8.70;;
70953;SDS011;58618;47.490;8.736;2023-09-30T04:58:08;22.07;;;8.33;;
70953;SDS011;58618;47.490;8.736;2023-09-30T05:00:56;25.55;;;8.18;;
70953;SDS011;58618;47.490;8.736;2023-09-30T05:03:44;23.90;;;8.52;;
70953;SDS011;58618;47.490;8.736;2023-09-30T05:06:35;23.70;;;7.80;;
70953;SDS011;58618;47.490;8.736;2023-09-30T05:09:22;22.52;;;8.00;;
70953;SDS011;58618;47.490;8.736;2023-09-30T05:12:11;26.17;;;8.30;;
70953;SDS011;58618;47.490;8.736;2023-09-30T05:14:59;25.17;;;8.63;;
70953;SDS011;58618;47.490;8.736;2023-09-30T05:17:49;26.50;;;9.32;;
70953;SDS011;58618;47.490;8.736;2023-09-30T05:20:36;24.75;;;8.23;;
70953;SDS011;58618;47.490;8.736;2023-09-30T05:23:24;24.42;;;9.48;;
70953;SDS011;58618;47.490;8.736;2023-09-30T05:26:12;22.00;;;8.10;;
70953;SDS011;58618;47.490;8.736;2023-09-30T05:28:59;24.98;;;9.05;;
70953;SDS011;58618;47.490;8.736;2023-09-30T05:31:46;22.85;;;8.70;;
70953;SDS011;58618;47.490;8.736;2023-09-30T05:34:35;25.27;;;8.27;;
70953;SDS011;58618;47.490;8.736;2023-09-30T05:37:23;23.42;;;8.18;;
70953;SDS011;58618;47.490;8.736;2023-09-30T05:40:12;23.47;;;8.53;;
70953;SDS011;58618;47.490;8.736;2023-09-30T05:43:07;21.60;;;8.07;;
70953;SDS011;58618;47.490;8.736;2023-09-30T05:45:55;22.17;;;8.50;;
70953;SDS011;58618;47.490;8.736;2023-09-30T05:48:42;24.88;;;8.52;;
70953;SDS011;58618;47.490;8.736;2023-09-30T05:51:31;22.13;;;7.75;;
70953;SDS011;58618;47.490;8.736;2023-09-30T05:54:19;22.13;;;8.17;;
70953;SDS011;58618;47.490;8.736;2023-09-30T05:57:07;21.23;;;8.20;;
70953;SDS011;58618;47.490;8.736;2023-09-30T05:59:54;23.15;;;8.15;;
70953;SDS011;58618;47.490;8.736;2023-09-30T06:02:42;24.20;;;8.10;;
70953;SDS011;58618;47.490;8.736;2023-09-30T06:05:30;25.80;;;8.00;;
70953;SDS011;58618;47.490;8.736;2023-09-30T06:08:19;21.63;;;8.03;;
70953;SDS011;58618;47.490;8.736;2023-09-30T06:11:06;22.67;;;7.95;;
70953;SDS011;58618;47.490;8.736;2023-09-30T06:13:54;20.90;;;8.15;;
70953;SDS011;58618;47.490;8.736;2023-09-30T06:16:41;20.85;;;7.72;;
70953;SDS011;58618;47.490;8.736;2023-09-30T06:19:29;20.88;;;8.25;;
70953;SDS011;58618;47.490;8.736;2023-09-30T06:22:16;26.43;;;8.13;;
70953;SDS011;58618;47.490;8.736;2023-09-30T06:25:06;19.95;;;7.63;;
70953;SDS011;58618;47.490;8.736;2023-09-30T06:27:54;21.83;;;8.20;;
70953;SDS011;58618;47.490;8.736;2023-09-30T06:30:42;22.60;;;7.47;;
70953;SDS011;58618;47.490;8.736;2023-09-30T06:33:31;22.58;;;8.13;;
70953;SDS011;58618;47.490;8.736;2023-09-30T06:36:19;20.83;;;7.03;;
70953;SDS011;58618;47.490;8.736;2023-09-30T06:39:07;23.00;;;7.82;;
70953;SDS011;58618;47.490;8.736;2023-09-30T06:41:57;20.23;;;7.45;;
70953;SDS011;58618;47.490;8.736;2023-09-30T06:44:45;22.38;;;7.63;;
70953;SDS011;58618;47.490;8.736;2023-09-30T06:47:34;21.10;;;7.18;;
70953;SDS011;58618;47.490;8.736;2023-09-30T06:50:22;18.07;;;7.20;;
70953;SDS011;58618;47.490;8.736;2023-09-30T06:53:10;20.35;;;7.40;;
70953;SDS011;58618;47.490;8.736;2023-09-30T06:55:58;18.98;;;7.25;;
70953;SDS011;58618;47.490;8.736;2023-09-30T06:58:49;21.33;;;7.35;;
70953;SDS011;58618;47.490;8.736;2023-09-30T07:01:37;18.30;;;7.75;;
70953;SDS011;58618;47.490;8.736;2023-09-30T07:04:25;21.73;;;7.67;;
70953;SDS011;58618;47.490;8.736;2023-09-30T07:07:16;20.17;;;7.50;;
70953;SDS011;58618;47.490;8.736;2023-09-30T07:10:04;20.77;;;7.53;;
70953;SDS011;58618;47.490;8.736;2023-09-30T07:12:53;22.38;;;7.38;;
70953;SDS011;58618;47.490;8.736;2023-09-30T07:15:42;25.05;;;7.75;;
70953;SDS011;58618;47.490;8.736;2023-09-30T07:18:30;22.63;;;8.10;;
70953;SDS011;58618;47.490;8.736;2023-09-30T07:21:18;20.10;;;7.45;;
70953;SDS011;58618;47.490;8.736;2023-09-30T07:24:06;23.25;;;8.40;;
70953;SDS011;58618;47.490;8.736;2023-09-30T07:26:54;18.85;;;6.90;;
70953;SDS011;58618;47.490;8.736;2023-09-30T07:29:43;22.02;;;7.88;;
70953;SDS011;58618;47.490;8.736;2023-09-30T07:32:33;17.83;;;6.93;;
70953;SDS011;58618;47.490;8.736;2023-09-30T07:35:20;19.65;;;7.18;;
70953;SDS011;58618;47.490;8.736;2023-09-30T07:38:08;16.63;;;6.72;;
70953;SDS011;58618;47.490;8.736;2023-09-30T07:40:56;18.33;;;7.05;;
70953;SDS011;58618;47.490;8.736;2023-09-30T07:43:44;17.45;;;6.57;;
70953;SDS011;58618;47.490;8.736;2023-09-30T07:46:32;17.07;;;6.77;;
70953;SDS011;58618;47.490;8.736;2023-09-30T07:49:21;15.65;;;5.97;;
70953;SDS011;58618;47.490;8.736;2023-09-30T07:52:10;16.63;;;5.97;;
70953;SDS011;58618;47.490;8.736;2023-09-30T07:54:58;16.77;;;5.93;;
70953;SDS011;58618;47.490;8.736;2023-09-30T07:57:45;15.30;;;6.03;;
70953;SDS011;58618;47.490;8.736;2023-09-30T08:00:33;16.27;;;6.10;;
70953;SDS011;58618;47.490;8.736;2023-09-30T08:03:22;16.00;;;6.32;;
70953;SDS011;58618;47.490;8.736;2023-09-30T08:06:11;18.13;;;6.63;;
70953;SDS011;58618;47.490;8.736;2023-09-30T08:08:59;16.13;;;7.00;;
70953;SDS011;58618;47.490;8.736;2023-09-30T08:11:49;15.25;;;6.30;;
70953;SDS011;58618;47.490;8.736;2023-09-30T08:14:37;14.10;;;5.80;;
70953;SDS011;58618;47.490;8.736;2023-09-30T08:17:30;18.08;;;7.00;;
70953;SDS011;58618;47.490;8.736;2023-09-30T08:20:19;14.05;;;6.22;;
70953;SDS011;58618;47.490;8.736;2023-09-30T08:23:09;14.88;;;6.22;;
70953;SDS011;58618;47.490;8.736;2023-09-30T08:25:58;16.15;;;6.43;;
70953;SDS011;58618;47.490;8.736;2023-09-30T08:28:46;15.40;;;5.80;;
70953;SDS011;58618;47.490;8.736;2023-09-30T08:31:33;15.77;;;5.88;;
70953;SDS011;58618;47.490;8.736;2023-09-30T08:34:21;16.42;;;5.85;;
70953;SDS011;58618;47.490;8.736;2023-09-30T08:37:10;14.77;;;5.72;;
70953;SDS011;58618;47.490;8.736;2023-09-30T08:39:59;12.88;;;5.18;;
70953;SDS011;58618;47.490;8.736;2023-09-30T08:42:47;13.37;;;5.00;;
70953;SDS011;58618;47.490;8.736;2023-09-30T08:45:39;13.95;;;4.30;;
70953;SDS011;58618;47.490;8.736;2023-09-30T08:48:31;12.73;;;5.00;;
70953;SDS011;58618;47.490;8.736;2023-09-30T08:51:21;12.00;;;4.28;;
70953;SDS011;58618;47.490;8.736;2023-09-30T08:54:09;13.57;;;4.93;;
70953;SDS011;58618;47.490;8.736;2023-09-30T08:56:59;13.77;;;4.47;;
70953;SDS011;58618;47.490;8.736;2023-09-30T08:59:50;13.75;;;4.82;;
70953;SDS011;58618;47.490;8.736;2023-09-30T09:02:41;14.77;;;4.80;;
70953;SDS011;58618;47.490;8.736;2023-09-30T09:05:29;14.27;;;5.10;;
70953;SDS011;58618;47.490;8.736;2023-09-30T09:08:17;14.63;;;5.40;;
70953;SDS011;58618;47.490;8.736;2023-09-30T09:11:09;15.73;;;6.10;;
70953;SDS011;58618;47.490;8.736;2023-09-30T09:14:01;14.68;;;4.82;;
70953;SDS011;58618;47.490;8.736;2023-09-30T09:16:52;14.27;;;5.10;;
70953;SDS011;58618;47.490;8.736;2023-09-30T09:19:41;14.43;;;4.82;;
70953;SDS011;58618;47.490;8.736;2023-09-30T09:22:37;15.20;;;4.53;;
70953;SDS011;58618;47.490;8.736;2023-09-30T09:25:25;13.97;;;4.70;;
70953;SDS011;58618;47.490;8.736;2023-09-30T09:28:13;17.27;;;5.47;;
70953;SDS011;58618;47.490;8.736;2023-09-30T09:31:04;13.57;;;4.97;;
70953;SDS011;58618;47.490;8.736;2023-09-30T09:34:13;15.85;;;5.10;;
70953;SDS011;58618;47.490;8.736;2023-09-30T09:37:12;16.33;;;5.07;;
70953;SDS011;58618;47.490;8.736;2023-09-30T09:40:01;13.80;;;4.63;;
70953;SDS011;58618;47.490;8.736;2023-09-30T09:42:50;14.82;;;5.20;;
70953;SDS011;58618;47.490;8.736;2023-09-30T09:45:40;14.73;;;5.20;;
70953;SDS011;58618;47.490;8.736;2023-09-30T09:48:31;13.43;;;4.80;;
70953;SDS011;58618;47.490;8.736;2023-09-30T09:51:19;13.35;;;4.72;;
70953;SDS011;58618;47.490;8.736;2023-09-30T09:54:07;12.67;;;4.70;;
70953;SDS011;58618;47.490;8.736;2023-09-30T09:56:56;16.13;;;5.15;;
70953;SDS011;58618;47.490;8.736;2023-09-30T09:59:47;16.17;;;5.43;;
70953;SDS011;58618;47.490;8.736;2023-09-30T10:02:35;15.27;;;4.95;;
70953;SDS011;58618;47.490;8.736;2023-09-30T10:05:26;15.65;;;5.30;;
70953;SDS011;58618;47.490;8.736;2023-09-30T10:08:16;17.40;;;5.13;;
70953;SDS011;58618;47.490;8.736;2023-09-30T10:11:08;14.93;;;5.25;;
70953;SDS011;58618;47.490;8.736;2023-09-30T10:13:57;16.42;;;5.20;;
70953;SDS011;58618;47.490;8.736;2023-09-30T10:16:49;13.45;;;5.13;;
70953;SDS011;58618;47.490;8.736;2023-09-30T10:19:49;13.25;;;4.95;;
70953;SDS011;58618;47.490;8.736;2023-09-30T10:26:23;17.00;;;5.78;;
70953;SDS011;58618;47.490;8.736;2023-09-30T10:29:11;16.88;;;5.50;;
70953;SDS011;58618;47.490;8.736;2023-09-30T10:31:59;14.88;;;4.68;;
70953;SDS011;58618;47.490;8.736;2023-09-30T10:34:48;13.48;;;5.20;;
70953;SDS011;58618;47.490;8.736;2023-09-30T10:37:38;16.00;;;5.70;;
70953;SDS011;58618;47.490;8.736;2023-09-30T10:40:26;13.10;;;5.03;;
70953;SDS011;58618;47.490;8.736;2023-09-30T10:43:30;15.25;;;5.82;;
70953;SDS011;58618;47.490;8.736;2023-09-30T10:46:30;13.93;;;5.03;;
70953;SDS011;58618;47.490;8.736;2023-09-30T10:49:30;14.15;;;5.47;;
70953;SDS011;58618;47.490;8.736;2023-09-30T10:52:21;15.63;;;5.20;;
70953;SDS011;58618;47.490;8.736;2023-09-30T10:55:10;14.43;;;5.25;;
70953;SDS011;58618;47.490;8.736;2023-09-30T10:57:58;14.27;;;5.38;;
70953;SDS011;58618;47.490;8.736;2023-09-30T11:00:56;14.43;;;4.97;;
70953;SDS011;58618;47.490;8.736;2023-09-30T11:03:44;14.77;;;5.13;;
70953;SDS011;58618;47.490;8.736;2023-09-30T11:06:34;14.97;;;5.53;;
70953;SDS011;58618;47.490;8.736;2023-09-30T11:09:22;14.50;;;5.53;;
70953;SDS011;58618;47.490;8.736;2023-09-30T11:12:13;15.75;;;5.30;;
70953;SDS011;58618;47.490;8.736;2023-09-30T11:15:02;16.35;;;5.90;;
70953;SDS011;58618;47.490;8.736;2023-09-30T11:17:52;14.52;;;5.28;;
70953;SDS011;58618;47.490;8.736;2023-09-30T11:20:40;13.30;;;5.27;;
70953;SDS011;58618;47.490;8.736;2023-09-30T11:23:28;16.20;;;5.50;;
70953;SDS011;58618;47.490;8.736;2023-09-30T11:26:28;14.15;;;5.40;;
70953;SDS011;58618;47.490;8.736;2023-09-30T11:29:18;14.85;;;5.82;;
70953;SDS011;58618;47.490;8.736;2023-09-30T11:32:06;15.35;;;5.38;;
70953;SDS011;58618;47.490;8.736;2023-09-30T11:34:56;16.50;;;5.93;;
70953;SDS011;58618;47.490;8.736;2023-09-30T11:37:43;15.85;;;5.75;;
70953;SDS011;58618;47.490;8.736;2023-09-30T11:40:31;15.50;;;5.90;;
70953;SDS011;58618;47.490;8.736;2023-09-30T11:43:20;15.55;;;5.38;;
70953;SDS011;58618;47.490;8.736;2023-09-30T11:46:09;15.27;;;5.70;;
70953;SDS011;58618;47.490;8.736;2023-09-30T11:49:00;15.57;;;5.40;;
70953;SDS011;58618;47.490;8.736;2023-09-30T11:51:52;17.23;;;5.93;;
70953;SDS011;58618;47.490;8.736;2023-09-30T11:54:40;15.57;;;5.80;;
70953;SDS011;58618;47.490;8.736;2023-09-30T11:57:30;15.32;;;5.55;;
70953;SDS011;58618;47.490;8.736;2023-09-30T12:00:18;14.80;;;4.97;;
70953;SDS011;58618;47.490;8.736;2023-09-30T12:03:05;12.60;;;5.03;;
70953;SDS011;58618;47.490;8.736;2023-09-30T12:05:53;16.48;;;5.50;;
70953;SDS011;58618;47.490;8.736;2023-09-30T12:08:43;14.98;;;5.10;;
70953;SDS011;58618;47.490;8.736;2023-09-30T12:11:32;17.30;;;5.60;;
70953;SDS011;58618;47.490;8.736;2023-09-30T12:14:20;14.65;;;5.28;;
70953;SDS011;58618;47.490;8.736;2023-09-30T12:17:08;14.53;;;5.67;;
70953;SDS011;58618;47.490;8.736;2023-09-30T12:19:57;13.25;;;5.35;;
70953;SDS011;58618;47.490;8.736;2023-09-30T12:22:45;14.52;;;5.55;;
70953;SDS011;58618;47.490;8.736;2023-09-30T12:25:34;14.90;;;5.65;;
70953;SDS011;58618;47.490;8.736;2023-09-30T12:28:23;16.98;;;6.15;;
70953;SDS011;58618;47.490;8.736;2023-09-30T12:31:12;13.87;;;5.33;;
70953;SDS011;58618;47.490;8.736;2023-09-30T12:34:01;14.70;;;5.22;;
70953;SDS011;58618;47.490;8.736;2023-09-30T12:36:49;12.20;;;5.13;;
70953;SDS011;58618;47.490;8.736;2023-09-30T12:39:37;14.95;;;5.25;;
70953;SDS011;58618;47.490;8.736;2023-09-30T12:42:26;15.70;;;5.30;;
70953;SDS011;58618;47.490;8.736;2023-09-30T12:45:15;14.33;;;5.20;;
70953;SDS011;58618;47.490;8.736;2023-09-30T12:48:04;17.17;;;5.35;;
70953;SDS011;58618;47.490;8.736;2023-09-30T12:50:53;16.17;;;5.47;;
70953;SDS011;58618;47.490;8.736;2023-09-30T12:53:41;12.60;;;5.32;;
70953;SDS011;58618;47.490;8.736;2023-09-30T12:56:28;15.45;;;5.50;;
70953;SDS011;58618;47.490;8.736;2023-09-30T12:59:18;17.57;;;6.70;;
70953;SDS011;58618;47.490;8.736;2023-09-30T13:02:10;14.77;;;5.38;;
70953;SDS011;58618;47.490;8.736;2023-09-30T13:04:58;15.85;;;5.68;;
70953;SDS011;58618;47.490;8.736;2023-09-30T13:07:45;15.50;;;5.63;;
70953;SDS011;58618;47.490;8.736;2023-09-30T13:10:33;15.02;;;5.68;;
70953;SDS011;58618;47.490;8.736;2023-09-30T13:13:22;13.97;;;5.23;;
70953;SDS011;58618;47.490;8.736;2023-09-30T13:16:11;15.18;;;5.10;;
70953;SDS011;58618;47.490;8.736;2023-09-30T13:18:59;14.93;;;5.60;;
70953;SDS011;58618;47.490;8.736;2023-09-30T13:21:47;12.85;;;5.15;;
70953;SDS011;58618;47.490;8.736;2023-09-30T13:24:36;15.02;;;5.07;;
70953;SDS011;58618;47.490;8.736;2023-09-30T13:27:25;14.77;;;5.03;;
70953;SDS011;58618;47.490;8.736;2023-09-30T13:30:14;12.48;;;5.15;;
70953;SDS011;58618;47.490;8.736;2023-09-30T13:33:05;16.40;;;5.53;;
70953;SDS011;58618;47.490;8.736;2023-09-30T13:35:52;17.70;;;5.75;;
70953;SDS011;58618;47.490;8.736;2023-09-30T13:38:41;14.05;;;6.05;;
70953;SDS011;58618;47.490;8.736;2023-09-30T13:41:29;13.83;;;5.27;;
70953;SDS011;58618;47.490;8.736;2023-09-30T13:44:17;12.60;;;5.55;;
70953;SDS011;58618;47.490;8.736;2023-09-30T13:47:05;14.07;;;5.57;;
70953;SDS011;58618;47.490;8.736;2023-09-30T13:49:55;12.18;;;4.78;;
70953;SDS011;58618;47.490;8.736;2023-09-30T13:52:43;12.88;;;5.10;;
70953;SDS011;58618;47.490;8.736;2023-09-30T13:55:31;14.33;;;5.47;;
70953;SDS011;58618;47.490;8.736;2023-09-30T13:58:19;14.10;;;5.15;;
70953;SDS011;58618;47.490;8.736;2023-09-30T14:01:07;17.15;;;5.25;;
70953;SDS011;58618;47.490;8.736;2023-09-30T14:03:56;13.95;;;5.30;;
70953;SDS011;58618;47.490;8.736;2023-09-30T14:06:46;17.65;;;7.47;;
70953;SDS011;58618;47.490;8.736;2023-09-30T14:09:34;17.13;;;6.10;;
70953;SDS011;58618;47.490;8.736;2023-09-30T14:12:23;13.98;;;5.32;;
70953;SDS011;58618;47.490;8.736;2023-09-30T14:15:11;14.82;;;5.93;;
70953;SDS011;58618;47.490;8.736;2023-09-30T14:17:59;13.23;;;4.90;;
70953;SDS011;58618;47.490;8.736;2023-09-30T14:20:48;15.15;;;5.95;;
70953;SDS011;58618;47.490;8.736;2023-09-30T14:23:37;14.97;;;5.60;;
70953;SDS011;58618;47.490;8.736;2023-09-30T14:26:25;15.00;;;5.22;;
70953;SDS011;58618;47.490;8.736;2023-09-30T14:29:13;15.50;;;5.18;;
70953;SDS011;58618;47.490;8.736;2023-09-30T14:32:01;13.35;;;4.85;;
70953;SDS011;58618;47.490;8.736;2023-09-30T14:34:49;13.75;;;5.38;;
70953;SDS011;58618;47.490;8.736;2023-09-30T14:37:37;15.27;;;5.83;;
70953;SDS011;58618;47.490;8.736;2023-09-30T14:40:26;19.75;;;7.20;;
70953;SDS011;58618;47.490;8.736;2023-09-30T14:43:13;13.48;;;6.93;;
70953;SDS011;58618;47.490;8.736;2023-09-30T14:46:01;13.27;;;5.15;;
70953;SDS011;58618;47.490;8.736;2023-09-30T14:48:48;21.98;;;10.60;;
70953;SDS011;58618;47.490;8.736;2023-09-30T14:51:35;25.90;;;13.57;;
70953;SDS011;58618;47.490;8.736;2023-09-30T14:54:23;17.33;;;8.85;;
70953;SDS011;58618;47.490;8.736;2023-09-30T14:57:12;13.70;;;6.13;;
70953;SDS011;58618;47.490;8.736;2023-09-30T15:00:01;14.50;;;5.72;;
70953;SDS011;58618;47.490;8.736;2023-09-30T15:02:50;18.58;;;7.80;;
70953;SDS011;58618;47.490;8.736;2023-09-30T15:05:37;12.77;;;5.77;;
70953;SDS011;58618;47.490;8.736;2023-09-30T15:08:25;13.13;;;5.15;;
70953;SDS011;58618;47.490;8.736;2023-09-30T15:11:12;13.38;;;5.13;;
70953;SDS011;58618;47.490;8.736;2023-09-30T15:14:02;14.10;;;6.40;;
70953;SDS011;58618;47.490;8.736;2023-09-30T15:16:50;17.17;;;6.22;;
70953;SDS011;58618;47.490;8.736;2023-09-30T15:19:38;11.93;;;4.80;;
70953;SDS011;58618;47.490;8.736;2023-09-30T15:22:25;14.60;;;6.03;;
70953;SDS011;58618;47.490;8.736;2023-09-30T15:25:12;19.25;;;8.25;;
70953;SDS011;58618;47.490;8.736;2023-09-30T15:28:00;14.30;;;5.68;;
70953;SDS011;58618;47.490;8.736;2023-09-30T15:30:51;11.77;;;4.95;;
70953;SDS011;58618;47.490;8.736;2023-09-30T15:33:38;11.47;;;4.70;;
70953;SDS011;58618;47.490;8.736;2023-09-30T15:36:26;44.50;;;23.67;;
70953;SDS011;58618;47.490;8.736;2023-09-30T15:39:13;14.00;;;5.72;;
70953;SDS011;58618;47.490;8.736;2023-09-30T15:42:01;13.90;;;5.43;;
70953;SDS011;58618;47.490;8.736;2023-09-30T15:44:49;13.98;;;5.32;;
70953;SDS011;58618;47.490;8.736;2023-09-30T15:47:43;15.83;;;5.23;;
70953;SDS011;58618;47.490;8.736;2023-09-30T15:50:30;12.60;;;5.35;;
70953;SDS011;58618;47.490;8.736;2023-09-30T15:53:18;14.23;;;5.43;;
70953;SDS011;58618;47.490;8.736;2023-09-30T15:56:05;13.13;;;4.90;;
70953;SDS011;58618;47.490;8.736;2023-09-30T15:58:53;12.98;;;5.13;;
70953;SDS011;58618;47.490;8.736;2023-09-30T16:01:40;13.83;;;5.40;;
70953;SDS011;58618;47.490;8.736;2023-09-30T16:04:29;13.50;;;4.65;;
70953;SDS011;58618;47.490;8.736;2023-09-30T16:07:18;13.30;;;4.43;;
70953;SDS011;58618;47.490;8.736;2023-09-30T16:10:05;11.80;;;4.80;;
70953;SDS011;58618;47.490;8.736;2023-09-30T16:12:53;13.90;;;5.13;;
70953;SDS011;58618;47.490;8.736;2023-09-30T16:15:41;13.10;;;5.20;;
70953;SDS011;58618;47.490;8.736;2023-09-30T16:18:29;13.55;;;4.93;;
70953;SDS011;58618;47.490;8.736;2023-09-30T16:21:18;11.93;;;4.97;;
70953;SDS011;58618;47.490;8.736;2023-09-30T16:24:05;12.68;;;4.65;;
70953;SDS011;58618;47.490;8.736;2023-09-30T16:26:53;14.60;;;5.78;;
70953;SDS011;58618;47.490;8.736;2023-09-30T16:29:41;11.23;;;4.70;;
70953;SDS011;58618;47.490;8.736;2023-09-30T16:32:28;14.55;;;5.15;;
70953;SDS011;58618;47.490;8.736;2023-09-30T16:35:17;14.77;;;5.22;;
70953;SDS011;58618;47.490;8.736;2023-09-30T16:38:06;11.32;;;4.55;;
70953;SDS011;58618;47.490;8.736;2023-09-30T16:40:53;13.68;;;5.38;;
70953;SDS011;58618;47.490;8.736;2023-09-30T16:43:40;13.57;;;4.83;;